Time;durP1;ratioP1;P1;durP2;ratioP2;P2;SDS_P1;SDS_P2;PMS_P1;PMS_P2;Temp;Humidity;BMP_temperature;BMP_pressure;BME280_temperature;BME280_humidity;BME280_pressure;Samples;Min_cycle;Max_cycle;Signal;HPM_P1;HPM_P2
2023/04/26 00:01:38;;;;;;;2.45;2.10;;;;;;;2.58;76.41;101861.66;5056332;28;20536;-87
2023/04/26 00:04:03;;;;;;;2.60;2.25;;;;;;;2.57;76.36;101859.00;5056359;28;20029;-88
2023/04/26 00:06:28;;;;;;;3.63;2.30;;;;;;;2.55;76.68;101861.53;5056467;28;20120;-87
2023/04/26 00:08:54;;;;;;;3.78;2.40;;;;;;;2.51;76.68;101859.66;5056793;28;20033;-87
2023/04/26 00:11:19;;;;;;;3.60;2.30;;;;;;;2.47;77.14;101857.84;5056234;28;20033;-87
2023/04/26 00:13:45;;;;;;;3.35;2.40;;;;;;;2.44;76.91;101861.16;5056315;28;20381;-87
2023/04/26 00:16:12;;;;;;;4.65;2.40;;;;;;;2.41;77.10;101871.31;5056296;28;20028;-87
2023/04/26 00:18:37;;;;;;;2.42;2.10;;;;;;;2.33;77.21;101861.59;5056562;28;20033;-88
2023/04/26 00:21:02;;;;;;;2.60;2.30;;;;;;;2.35;77.17;101870.22;5056475;28;20029;-87
2023/04/26 00:23:28;;;;;;;3.60;2.28;;;;;;;2.30;76.82;101864.94;5055979;28;20100;-87
2023/04/26 00:25:56;;;;;;;2.75;2.30;;;;;;;2.28;77.62;101861.44;5056248;28;20366;-87
2023/04/26 00:28:21;;;;;;;3.53;2.30;;;;;;;2.27;77.45;101865.69;5055834;28;20037;-88
2023/04/26 00:30:47;;;;;;;4.80;2.35;;;;;;;2.25;77.35;101854.50;5056071;28;20036;-87
2023/04/26 00:33:18;;;;;;;2.95;2.30;;;;;;;2.24;77.79;101859.59;5056303;28;20127;-87
2023/04/26 00:35:44;;;;;;;2.30;2.10;;;;;;;2.20;77.82;101853.47;5056217;28;20086;-87
2023/04/26 00:38:09;;;;;;;2.50;2.10;;;;;;;2.20;77.99;101856.03;5068811;28;20032;-87
2023/04/26 00:40:34;;;;;;;2.45;2.20;;;;;;;2.21;77.76;101862.91;5075822;28;20182;-87
2023/04/26 00:42:59;;;;;;;2.72;2.00;;;;;;;2.16;78.11;101857.63;5075966;28;20464;-88
2023/04/26 00:45:25;;;;;;;2.88;2.20;;;;;;;2.18;77.81;101861.94;5058256;28;20119;-89
2023/04/26 00:47:51;;;;;;;4.10;2.20;;;;;;;2.19;78.07;101863.69;5056365;28;20032;-88
2023/04/26 00:50:20;;;;;;;3.38;2.30;;;;;;;2.18;78.00;101864.50;5056576;28;20017;-88
2023/04/26 00:52:46;;;;;;;4.13;2.25;;;;;;;2.12;77.84;101858.34;5056282;28;20100;-88
2023/04/26 00:55:13;;;;;;;2.50;2.08;;;;;;;2.07;77.88;101858.97;5055819;28;20045;-88
2023/04/26 00:57:39;;;;;;;3.95;2.30;;;;;;;2.05;78.15;101866.63;5055635;28;20556;-88
2023/04/26 01:00:05;;;;;;;3.65;2.30;;;;;;;1.97;78.32;101857.78;5055898;28;20037;-88
2023/04/26 01:02:31;;;;;;;3.72;2.30;;;;;;;1.97;78.10;101860.34;5055682;28;20052;-88
2023/04/26 01:04:56;;;;;;;3.10;2.20;;;;;;;1.93;78.73;101854.22;5056266;28;20477;-88
2023/04/26 01:07:22;;;;;;;2.97;2.03;;;;;;;1.94;78.58;101853.41;5061122;28;20432;-88
2023/04/26 01:09:48;;;;;;;3.05;2.13;;;;;;;1.94;79.06;101861.09;5076140;28;20069;-88
2023/04/26 01:12:13;;;;;;;2.50;2.15;;;;;;;1.89;78.64;101856.63;5074556;28;20024;-86
2023/04/26 01:14:40;;;;;;;3.17;2.10;;;;;;;1.90;78.98;101864.38;5075880;28;20077;-88
2023/04/26 01:17:05;;;;;;;2.93;2.20;;;;;;;1.84;78.96;101857.34;5075192;28;20097;-88
2023/04/26 01:19:31;;;;;;;2.35;2.00;;;;;;;1.84;79.20;101864.13;5074964;28;20770;-88
2023/04/26 01:21:57;;;;;;;3.10;2.13;;;;;;;1.74;79.16;101852.69;5075960;28;20020;-88
2023/04/26 01:24:22;;;;;;;2.90;2.20;;;;;;;1.80;79.36;101868.28;5075585;28;20100;-86
2023/04/26 01:26:50;;;;;;;3.33;2.40;;;;;;;1.78;79.03;101859.66;5075147;28;20036;-88
2023/04/26 01:29:23;;;;;;;3.75;2.40;;;;;;;1.74;79.24;101862.03;5074952;28;20024;-88
2023/04/26 01:31:48;;;;;;;3.13;2.20;;;;;;;1.72;79.53;101863.66;5075144;28;20044;-88
2023/04/26 01:34:14;;;;;;;3.22;2.15;;;;;;;1.69;79.48;101860.19;5075630;28;20032;-88
2023/04/26 01:36:39;;;;;;;3.17;2.33;;;;;;;1.66;79.47;101867.75;5074549;28;20385;-88
2023/04/26 01:39:05;;;;;;;2.63;2.20;;;;;;;1.69;79.30;101870.41;5075248;28;20027;-88
2023/04/26 01:41:31;;;;;;;2.40;2.20;;;;;;;1.66;79.46;101872.00;5075153;28;20082;-87
2023/04/26 01:44:00;;;;;;;3.03;2.30;;;;;;;1.61;79.52;101870.97;5074931;28;20013;-88
2023/04/26 01:46:25;;;;;;;4.00;2.50;;;;;;;1.58;79.93;101869.13;5074110;28;20024;-88
2023/04/26 01:48:53;;;;;;;2.15;2.00;;;;;;;1.53;79.82;101865.53;5074858;28;20598;-88
2023/04/26 01:51:18;;;;;;;3.35;2.22;;;;;;;1.52;80.17;101874.03;5075314;28;20107;-88
2023/04/26 01:53:44;;;;;;;3.05;2.20;;;;;;;1.50;79.96;101868.88;5062881;28;20049;-88
2023/04/26 01:56:09;;;;;;;3.05;2.03;;;;;;;1.48;80.20;101865.38;5054458;28;20025;-88
2023/04/26 01:58:34;;;;;;;3.35;2.05;;;;;;;1.47;80.07;101870.41;5068242;28;20431;-88
2023/04/26 02:01:08;;;;;;;2.55;2.10;;;;;;;1.41;80.32;101868.47;5074634;28;20461;-88
2023/04/26 02:03:34;;;;;;;2.30;2.10;;;;;;;1.41;80.50;101862.50;5073797;28;20048;-88
2023/04/26 02:05:59;;;;;;;3.15;2.13;;;;;;;1.41;80.21;101872.75;5075055;28;20021;-89
2023/04/26 02:08:25;;;;;;;2.78;2.15;;;;;;;1.36;80.53;101873.41;5074618;28;20086;-88
2023/04/26 02:10:50;;;;;;;3.40;2.40;;;;;;;1.31;80.35;101872.38;5074674;28;20036;-87
2023/04/26 02:13:15;;;;;;;3.13;2.35;;;;;;;1.26;80.39;101873.00;5075023;28;20035;-88
2023/04/26 02:15:45;;;;;;;3.25;2.33;;;;;;;1.24;80.46;101865.25;5074423;28;20024;-88
2023/04/26 02:18:10;;;;;;;3.10;2.40;;;;;;;1.26;80.84;101871.31;5074631;28;20052;-88
2023/04/26 02:20:36;;;;;;;3.95;2.50;;;;;;;1.25;80.54;101871.25;5073995;28;20063;-87
2023/04/26 02:23:02;;;;;;;3.70;2.50;;;;;;;1.19;80.98;101867.63;5074021;28;20027;-88
2023/04/26 02:25:27;;;;;;;2.67;2.20;;;;;;;1.13;81.03;101853.72;5074169;28;20099;-88
2023/04/26 02:27:52;;;;;;;3.60;2.30;;;;;;;1.12;80.81;101860.53;5074361;28;20032;-87
2023/04/26 02:30:17;;;;;;;2.85;2.20;;;;;;;1.11;80.51;101858.78;5073564;28;20021;-88
2023/04/26 02:32:43;;;;;;;2.45;2.10;;;;;;;1.06;80.85;101855.19;5073998;28;20503;-88
2023/04/26 02:35:08;;;;;;;2.90;2.10;;;;;;;1.09;81.00;101857.84;5074472;28;20049;-88
2023/04/26 02:37:33;;;;;;;3.35;2.30;;;;;;;1.08;81.38;101858.66;5073557;28;20469;-88
2023/04/26 02:39:59;;;;;;;5.88;2.42;;;;;;;1.07;81.19;101851.81;5073984;28;20488;-87
2023/04/26 02:42:24;;;;;;;4.55;2.45;;;;;;;1.03;81.32;101848.25;5073758;28;20032;-88
2023/04/26 02:44:49;;;;;;;3.20;2.22;;;;;;;1.06;81.37;101856.06;5073442;28;20067;-88
2023/04/26 02:47:15;;;;;;;2.78;2.13;;;;;;;1.00;81.09;101844.72;5073499;28;20115;-88
2023/04/26 02:49:40;;;;;;;3.45;2.50;;;;;;;0.97;81.36;101845.47;5073816;28;20021;-87
2023/04/26 02:52:06;;;;;;;3.05;2.40;;;;;;;0.94;80.91;101855.56;5073131;28;20020;-88
2023/04/26 02:54:31;;;;;;;3.75;2.40;;;;;;;0.87;81.72;101846.78;5073460;28;20067;-88
2023/04/26 02:56:57;;;;;;;4.03;2.28;;;;;;;0.90;81.59;101846.91;5072964;28;20385;-87
2023/04/26 02:59:22;;;;;;;4.20;2.43;;;;;;;0.89;81.51;101842.59;5073269;28;20100;-87
2023/04/26 03:01:48;;;;;;;4.13;2.30;;;;;;;0.85;81.83;101840.72;5073713;28;20059;-87
2023/04/26 03:04:14;;;;;;;2.95;2.10;;;;;;;0.86;81.52;101842.47;5074581;28;20025;-87
2023/04/26 03:06:40;;;;;;;3.78;2.20;;;;;;;0.87;82.06;101849.31;5063754;28;20044;-87
2023/04/26 03:09:05;;;;;;;3.45;1.98;;;;;;;0.83;81.96;101847.47;5054198;28;20033;-88
2023/04/26 03:11:31;;;;;;;2.42;2.10;;;;;;;0.85;81.35;101844.97;5053274;28;20050;-87
2023/04/26 03:13:56;;;;;;;3.53;2.30;;;;;;;0.81;81.69;101843.97;5053008;28;20024;-87
2023/04/26 03:16:22;;;;;;;2.75;2.38;;;;;;;0.79;81.89;101842.19;5053334;28;20036;-87
2023/04/26 03:18:47;;;;;;;4.95;2.30;;;;;;;0.79;81.85;101844.72;5053386;28;20041;-87
2023/04/26 03:21:12;;;;;;;4.40;2.28;;;;;;;0.71;81.75;101837.59;5052545;28;20074;-87
2023/04/26 03:23:38;;;;;;;4.53;2.47;;;;;;;0.75;81.73;101847.16;5056258;28;20436;-88
2023/04/26 03:26:03;;;;;;;3.95;2.45;;;;;;;0.73;82.00;101840.25;5073026;28;20024;-88
2023/04/26 03:28:28;;;;;;;3.97;2.60;;;;;;;0.71;81.67;101841.84;5072968;28;20060;-87
2023/04/26 03:30:54;;;;;;;3.30;2.33;;;;;;;0.63;82.17;101831.31;5073060;28;20020;-87
2023/04/26 03:33:19;;;;;;;3.90;2.47;;;;;;;0.63;82.35;101832.97;5072401;28;20040;-87
2023/04/26 03:35:45;;;;;;;3.72;2.20;;;;;;;0.61;82.03;101826.16;5070119;28;20032;-88
2023/04/26 03:38:11;;;;;;;4.20;2.50;;;;;;;0.62;81.93;101837.22;5053386;28;20434;-88
2023/04/26 03:40:36;;;;;;;4.15;2.40;;;;;;;0.57;82.18;101833.59;5052021;28;20029;-88
2023/04/26 03:43:02;;;;;;;4.10;2.50;;;;;;;0.57;81.93;101836.16;5052778;28;20025;-88
2023/04/26 03:45:27;;;;;;;4.38;2.60;;;;;;;0.57;82.56;101833.59;5052817;28;20029;-88
2023/04/26 03:47:52;;;;;;;3.97;2.50;;;;;;;0.54;82.09;101834.34;5052725;28;20060;-88
2023/04/26 03:50:18;;;;;;;3.97;2.58;;;;;;;0.52;82.02;101828.28;5052858;28;20025;-87
2023/04/26 03:52:43;;;;;;;3.85;2.33;;;;;;;0.54;82.29;101829.25;5053012;28;20028;-88
2023/04/26 03:55:10;;;;;;;3.22;2.20;;;;;;;0.49;82.21;101827.31;5052342;28;20029;-88
2023/04/26 03:57:36;;;;;;;3.85;2.53;;;;;;;0.50;82.74;101829.94;5053006;28;20029;-88
2023/04/26 04:00:01;;;;;;;4.00;2.50;;;;;;;0.51;82.69;101835.91;5053369;28;20025;-88
2023/04/26 04:02:26;;;;;;;2.92;2.20;;;;;;;0.46;82.56;101836.56;5052600;28;20048;-88
2023/04/26 04:04:52;;;;;;;3.40;2.17;;;;;;;0.50;82.87;101846.94;5052832;28;20615;-88
2023/04/26 04:07:18;;;;;;;3.72;2.47;;;;;;;0.44;82.89;101837.31;5053006;28;20025;-87
2023/04/26 04:09:43;;;;;;;3.78;2.40;;;;;;;0.38;83.10;101832.84;5052427;28;20032;-87
2023/04/26 04:12:08;;;;;;;3.47;2.45;;;;;;;0.40;82.84;101836.34;5052937;28;20423;-88
2023/04/26 04:14:33;;;;;;;2.97;2.22;;;;;;;0.40;82.60;101841.44;5052129;28;20090;-87
2023/04/26 04:16:59;;;;;;;3.25;2.35;;;;;;;0.38;82.90;101831.97;5052319;28;20040;-88
2023/04/26 04:19:25;;;;;;;3.55;2.30;;;;;;;0.34;83.29;101836.06;5058720;28;20100;-87
2023/04/26 04:21:50;;;;;;;2.92;2.25;;;;;;;0.35;83.45;101835.25;5073051;28;20036;-88
2023/04/26 04:24:16;;;;;;;4.03;2.30;;;;;;;0.35;83.20;101839.50;5072066;28;20150;-88
2023/04/26 04:26:41;;;;;;;3.95;2.38;;;;;;;0.32;83.26;101830.03;5072427;28;20063;-88
2023/04/26 04:29:10;;;;;;;4.57;2.20;;;;;;;0.30;83.15;101826.53;5072996;28;20029;-88
2023/04/26 04:31:35;;;;;;;2.63;2.20;;;;;;;0.29;83.12;101828.19;5072333;28;20024;-88
2023/04/26 04:34:01;;;;;;;3.97;2.35;;;;;;;0.34;83.15;101843.72;5072681;28;20036;-88
2023/04/26 04:36:30;;;;;;;4.38;2.60;;;;;;;0.35;82.94;101848.00;5071706;28;20056;-87
2023/04/26 04:38:55;;;;;;;4.53;2.67;;;;;;;0.36;83.09;101847.22;5072381;28;20028;-88
2023/04/26 04:41:21;;;;;;;5.10;2.78;;;;;;;0.35;83.04;101842.91;5072064;28;20036;-88
2023/04/26 04:43:46;;;;;;;4.93;2.92;;;;;;;0.35;83.08;101842.03;5072238;28;20044;-88
2023/04/26 04:46:12;;;;;;;4.07;2.63;;;;;;;0.39;83.03;101844.78;5074264;28;20162;-88
2023/04/26 04:48:40;;;;;;;5.70;2.90;;;;;;;0.42;83.37;101851.72;5058127;28;20116;-88
2023/04/26 04:51:06;;;;;;;4.70;2.88;;;;;;;0.39;83.27;101842.25;5055581;28;20033;-88
2023/04/26 04:53:32;;;;;;;5.18;3.10;;;;;;;0.45;83.37;101839.06;5056396;28;20093;-88
2023/04/26 04:55:57;;;;;;;6.40;3.03;;;;;;;0.52;83.32;101847.88;5056200;28;20104;-88
2023/04/26 04:58:23;;;;;;;5.18;3.13;;;;;;;0.58;83.50;101863.44;5055391;28;20496;-88
2023/04/26 05:00:53;;;;;;;4.10;2.78;;;;;;;0.61;83.78;101864.47;5055862;28;20035;-88
2023/04/26 05:03:18;;;;;;;5.30;2.80;;;;;;;0.63;84.04;101861.06;5056170;28;20025;-87
2023/04/26 05:05:44;;;;;;;4.50;2.97;;;;;;;0.70;83.53;101865.66;5055066;28;20027;-88
2023/04/26 05:08:09;;;;;;;4.70;2.70;;;;;;;0.74;84.59;101870.97;5055945;28;20021;-88
2023/04/26 05:10:35;;;;;;;5.53;3.25;;;;;;;0.79;84.72;101866.03;5054749;28;20496;-87
2023/04/26 05:13:03;;;;;;;3.70;2.60;;;;;;;0.84;84.54;101864.56;5054978;28;20485;-87
2023/04/26 05:15:28;;;;;;;5.97;2.70;;;;;;;0.86;84.28;101860.34;5055485;28;20025;-87
2023/04/26 05:17:58;;;;;;;5.53;2.72;;;;;;;0.90;84.05;101846.03;5051982;28;20045;-88
2023/04/26 05:20:23;;;;;;;4.47;2.45;;;;;;;1.06;84.97;101866.28;5036781;28;20027;-87
2023/04/26 05:22:57;;;;;;;5.68;2.65;;;;;;;1.07;85.42;101860.38;5055560;28;20104;-88
2023/04/26 05:25:22;;;;;;;4.57;2.50;;;;;;;1.21;85.50;101870.28;5055595;28;20025;-88
2023/04/26 05:27:47;;;;;;;3.38;2.30;;;;;;;1.23;86.17;101863.53;5054862;28;20428;-87
2023/04/26 05:30:13;;;;;;;6.45;2.80;;;;;;;1.24;85.41;101855.03;5055609;28;20040;-87
2023/04/26 05:32:38;;;;;;;6.43;2.90;;;;;;;1.39;85.17;101868.44;5054871;28;20037;-88
2023/04/26 05:35:04;;;;;;;7.00;3.10;;;;;;;1.46;84.97;101871.25;5055991;28;20093;-88
2023/04/26 05:37:29;;;;;;;7.65;3.08;;;;;;;1.55;84.35;101866.47;5055263;28;20036;-88
2023/04/26 05:39:57;;;;;;;6.47;3.05;;;;;;;1.58;84.55;101864.00;5055379;28;20086;-88
2023/04/26 05:42:22;;;;;;;6.97;3.42;;;;;;;1.66;84.79;101878.00;5058463;28;20040;-88
2023/04/26 05:44:48;;;;;;;5.55;3.30;;;;;;;1.70;85.46;101878.97;5076074;28;20032;-88
2023/04/26 05:47:13;;;;;;;5.22;2.83;;;;;;;1.73;86.18;101885.91;5082117;28;20443;-88
2023/04/26 05:49:38;;;;;;;4.88;2.70;;;;;;;1.74;86.52;101882.53;5084916;28;20032;-87
2023/04/26 05:52:04;;;;;;;3.47;2.35;;;;;;;1.74;87.60;101875.72;5090008;28;20381;-88
2023/04/26 05:54:29;;;;;;;4.07;2.50;;;;;;;1.77;88.52;101874.97;5075952;28;20043;-88
2023/04/26 05:59:31;;;;;;;4.88;2.67;;;;;;;1.89;85.50;101878.00;5253480;22;20049;-89
2023/04/26 06:01:57;;;;;;;5.68;3.03;;;;;;;1.96;84.80;101871.41;5075198;28;20028;-89
2023/04/26 06:04:24;;;;;;;8.63;3.40;;;;;;;2.04;84.91;101870.00;5074678;28;20017;-89
2023/04/26 06:06:49;;;;;;;4.60;2.95;;;;;;;2.17;84.71;101876.41;5074941;28;20094;-88
2023/04/26 06:09:15;;;;;;;6.38;3.38;;;;;;;2.27;85.79;101875.06;5074159;28;20028;-89
2023/04/26 06:11:40;;;;;;;7.78;3.25;;;;;;;2.36;87.41;101883.06;5075742;28;20047;-88
2023/04/26 06:14:09;;;;;;;6.00;3.25;;;;;;;2.49;87.39;101874.13;5075651;28;20032;-93
2023/04/26 06:16:36;;;;;;;7.57;3.55;;;;;;;2.60;87.87;101877.91;5075429;28;20031;-93
2023/04/26 06:19:07;;;;;;;9.50;3.75;;;;;;;2.72;88.15;101879.16;5074964;28;20103;-87
2023/04/26 06:21:42;;;;;;;7.45;3.60;;;;;;;2.82;86.82;101875.22;5074687;28;20041;-89
2023/04/26 06:24:13;;;;;;;7.25;3.65;;;;;;;2.91;90.15;101866.16;5074639;28;20036;-89
2023/04/26 06:26:39;;;;;;;7.47;3.38;;;;;;;3.13;87.65;101887.38;5074706;28;20486;-89
2023/04/26 06:29:07;;;;;;;7.90;3.80;;;;;;;3.28;89.80;101896.34;5074491;28;20555;-89
2023/04/26 06:31:32;;;;;;;8.50;3.83;;;;;;;3.28;89.85;101886.97;5074806;28;20024;-89
2023/04/26 06:33:58;;;;;;;7.78;3.70;;;;;;;3.34;87.83;101876.88;5074546;28;20552;-89
2023/04/26 06:36:24;;;;;;;8.07;3.60;;;;;;;3.53;87.05;101903.16;5074055;28;20043;-89
2023/04/26 06:38:49;;;;;;;6.40;3.37;;;;;;;3.64;88.04;101900.88;5062142;28;20120;-89
2023/04/26 06:41:14;;;;;;;5.65;3.00;;;;;;;3.83;87.46;101908.31;5054420;28;20308;-89
2023/04/26 06:43:40;;;;;;;5.80;2.95;;;;;;;4.00;86.48;101908.81;5054299;28;20017;-89
2023/04/26 06:46:06;;;;;;;5.93;3.17;;;;;;;4.21;86.03;101910.28;5054103;28;20036;-89
2023/04/26 06:48:31;;;;;;;6.68;3.28;;;;;;;4.37;84.58;101898.72;5053831;28;20025;-89
2023/04/26 06:50:56;;;;;;;8.37;3.83;;;;;;;4.60;88.62;101914.75;5054062;28;20024;-89
2023/04/26 06:53:44;;;;;;;5.93;3.40;;;;;;;4.81;87.30;101908.41;5053989;28;20051;-89
2023/04/26 06:56:09;;;;;;;8.38;3.50;;;;;;;5.18;86.89;101896.47;5053702;28;20041;-89
2023/04/26 06:58:35;;;;;;;6.40;3.40;;;;;;;5.49;85.65;101884.31;5061691;28;20547;-89
2023/04/26 07:01:00;;;;;;;5.93;3.20;;;;;;;5.92;85.34;101897.25;5080890;28;20079;-87
2023/04/26 07:03:26;;;;;;;6.13;2.90;;;;;;;6.07;84.98;101907.03;5093311;28;20028;-87
2023/04/26 07:06:00;;;;;;;5.53;3.10;;;;;;;6.13;84.65;101890.84;5086962;28;20032;-87
2023/04/26 07:08:25;;;;;;;6.32;3.05;;;;;;;6.22;83.33;101903.03;5073267;28;20350;-87
2023/04/26 07:10:57;;;;;;;5.93;3.17;;;;;;;6.39;82.75;101898.22;5072338;28;20021;-87
2023/04/26 07:13:22;;;;;;;5.35;3.00;;;;;;;6.51;81.39;101907.88;5072415;28;20056;-89
2023/04/26 07:15:47;;;;;;;5.80;3.20;;;;;;;6.59;81.53;101890.81;5092982;28;20457;-89
2023/04/26 07:18:13;;;;;;;4.35;2.90;;;;;;;6.72;82.05;101907.41;5094329;28;20456;-90
2023/04/26 07:20:38;;;;;;;5.53;2.70;;;;;;;6.65;80.76;101916.75;5094091;28;20327;-94
2023/04/26 07:23:04;;;;;;;4.50;2.80;;;;;;;6.58;81.01;101913.19;5094918;28;20028;-92
2023/04/26 07:25:29;;;;;;;4.00;2.40;;;;;;;6.57;81.38;101915.75;5095020;28;20020;-90
2023/04/26 07:27:57;;;;;;;3.60;2.40;;;;;;;6.58;81.44;101909.75;5094782;28;20459;-91
2023/04/26 07:30:22;;;;;;;4.00;2.40;;;;;;;6.58;81.11;101882.22;5095161;28;20020;-92
2023/04/26 07:32:48;;;;;;;5.17;2.50;;;;;;;6.72;81.64;101902.25;5093588;28;20383;-91
2023/04/26 07:35:14;;;;;;;5.60;2.50;;;;;;;6.86;81.11;101910.22;5094632;28;20016;-91
2023/04/26 07:37:41;;;;;;;4.63;2.72;;;;;;;6.92;81.29;101902.59;5093917;28;20032;-91
2023/04/26 07:40:09;;;;;;;;;;;;;;;7.05;80.94;101898.50;5094085;28;20189;-91
2023/04/26 07:42:34;;;;;;;3.35;2.40;;;;;;;7.17;80.57;101903.88;5093880;28;19918;-92
2023/04/26 07:45:00;;;;;;;4.43;2.63;;;;;;;7.13;80.19;101878.84;5094258;28;20024;-91
2023/04/26 07:47:25;;;;;;;3.00;2.40;;;;;;;7.24;79.66;101891.94;5093509;28;20024;-92
2023/04/26 07:49:57;;;;;;;3.43;2.30;;;;;;;7.28;79.47;101885.09;5094053;28;20020;-91
2023/04/26 07:52:22;;;;;;;3.47;2.45;;;;;;;7.38;78.62;101889.53;5093902;28;20423;-92
2023/04/26 07:54:47;;;;;;;4.63;2.30;;;;;;;7.42;78.25;101888.75;5093552;28;20016;-92
2023/04/26 07:57:12;;;;;;;2.88;2.47;;;;;;;7.54;78.22;101899.25;5093703;28;20031;-91
2023/04/26 07:59:44;;;;;;;3.77;2.30;;;;;;;7.65;77.24;101894.25;5092857;28;20059;-86
2023/04/26 08:02:09;;;;;;;3.40;2.22;;;;;;;7.72;77.41;101887.44;5091956;28;20403;-84
2023/04/26 08:04:35;;;;;;;2.37;2.00;;;;;;;8.04;77.04;101905.97;5092392;28;20020;-84
2023/04/26 08:07:01;;;;;;;3.70;2.07;;;;;;;8.25;74.53;101913.94;5092836;28;20020;-86
2023/04/26 08:09:29;;;;;;;2.07;1.83;;;;;;;8.42;75.92;101919.28;5091324;28;20024;-83
2023/04/26 08:11:55;;;;;;;3.95;2.20;;;;;;;8.51;72.81;101919.41;5092882;28;20031;-83
2023/04/26 08:14:23;;;;;;;2.23;1.90;;;;;;;8.44;74.54;101921.06;5091851;28;20543;-81
2023/04/26 08:16:48;;;;;;;2.55;2.08;;;;;;;8.54;74.14;101921.19;5092803;28;20043;-84
2023/04/26 08:19:13;;;;;;;2.90;1.77;;;;;;;8.64;70.87;101913.53;5092188;28;20059;-85
2023/04/26 08:21:39;;;;;;;2.20;2.00;;;;;;;8.84;71.43;101920.59;5093354;28;20024;-83
2023/04/26 08:24:04;;;;;;;3.47;2.03;;;;;;;8.89;63.65;101908.59;5096752;28;20035;-83
2023/04/26 08:26:29;;;;;;;4.63;2.10;;;;;;;8.84;70.49;101906.81;5096188;28;20069;-83
2023/04/26 08:28:56;;;;;;;2.43;2.03;;;;;;;8.72;70.50;101911.03;5095525;28;20032;-83
2023/04/26 08:31:21;;;;;;;2.90;2.08;;;;;;;8.59;70.81;101904.88;5096616;28;20388;-83
2023/04/26 08:33:47;;;;;;;2.50;2.10;;;;;;;8.45;73.13;101891.72;5096547;28;20043;-84
2023/04/26 08:36:12;;;;;;;2.63;1.87;;;;;;;8.55;71.27;101917.75;5095471;28;20092;-83
2023/04/26 08:38:38;;;;;;;3.70;2.20;;;;;;;8.58;71.25;101920.34;5095098;28;20049;-83
2023/04/26 08:41:12;;;;;;;1.70;1.60;;;;;;;8.64;70.75;101917.84;5096723;28;20020;-83
2023/04/26 08:43:38;;;;;;;2.40;1.83;;;;;;;8.67;70.21;101917.00;5095505;28;20038;-84
2023/04/26 08:46:09;;;;;;;3.97;2.00;;;;;;;8.54;61.28;101909.09;5096403;28;20427;-83
2023/04/26 08:48:36;;;;;;;4.57;2.17;;;;;;;8.25;60.79;101914.81;5096093;28;20047;-83
2023/04/26 08:51:02;;;;;;;4.72;2.30;;;;;;;8.09;62.94;101910.28;5095285;28;20024;-83
2023/04/26 08:53:30;;;;;;;6.38;2.72;;;;;;;7.94;61.91;101913.56;5095935;28;20032;-83
2023/04/26 08:55:56;;;;;;;4.80;2.40;;;;;;;7.85;65.55;101914.31;5095871;28;20099;-83
2023/04/26 08:58:22;;;;;;;6.97;2.50;;;;;;;7.91;68.44;101908.34;5093104;28;20383;-82
2023/04/26 09:00:49;;;;;;;2.40;2.10;;;;;;;8.11;68.79;101914.63;5095942;28;20028;-81
2023/04/26 09:03:14;;;;;;;3.28;1.90;;;;;;;8.29;68.54;101908.81;5095943;28;20078;-82
2023/04/26 09:05:46;;;;;;;2.28;1.90;;;;;;;8.45;68.06;101909.84;5094794;28;20020;-83
2023/04/26 09:08:16;;;;;;;2.47;1.88;;;;;;;8.57;66.09;101901.38;5095647;28;20533;-83
2023/04/26 09:10:42;;;;;;;2.35;1.80;;;;;;;8.68;67.24;101904.06;5094837;28;20126;-82
2023/04/26 09:13:07;;;;;;;2.80;1.70;;;;;;;8.80;66.57;101895.56;5095575;28;20124;-82
2023/04/26 09:15:32;;;;;;;2.37;1.80;;;;;;;8.82;63.70;101901.63;5095297;28;20089;-83
2023/04/26 09:18:17;;;;;;;5.60;2.50;;;;;;;8.70;61.84;101898.91;5094943;28;20031;-84
2023/04/26 09:20:43;;;;;;;4.60;2.20;;;;;;;8.60;62.53;101887.59;5095627;28;20039;-84
2023/04/26 09:23:09;;;;;;;3.20;1.80;;;;;;;8.69;64.16;101889.41;5095499;28;20028;-84
2023/04/26 09:25:36;;;;;;;1.90;1.70;;;;;;;8.82;63.94;101899.03;5080197;28;20127;-81
2023/04/26 09:28:03;;;;;;;1.92;1.60;;;;;;;8.87;64.73;101888.72;5074695;28;20016;-80
2023/04/26 09:30:29;;;;;;;;;;;;;;;8.94;66.23;101887.91;5075107;28;20082;-80
2023/04/26 09:33:03;;;;;;;3.42;2.03;;;;;;;8.99;60.71;101893.13;5073371;28;19991;-81
2023/04/26 09:35:35;;;;;;;2.50;1.80;;;;;;;8.98;63.36;101889.69;5074844;28;20025;-81
2023/04/26 09:38:03;;;;;;;6.43;2.20;;;;;;;8.84;56.34;101893.88;5075051;28;20025;-81
2023/04/26 09:40:31;;;;;;;4.60;2.22;;;;;;;8.73;61.83;101896.34;5073643;28;20127;-81
2023/04/26 09:43:05;;;;;;;3.35;2.10;;;;;;;8.76;59.45;101899.84;5075010;28;20021;-80
2023/04/26 09:45:42;;;;;;;3.22;2.25;;;;;;;8.69;60.52;101897.19;5074667;28;20039;-80
2023/04/26 09:48:22;;;;;;;8.63;2.80;;;;;;;8.65;59.23;101904.06;5074714;28;20551;-80
2023/04/26 09:50:58;;;;;;;3.80;2.40;;;;;;;8.64;56.75;101898.00;5074639;28;20028;-81
2023/04/26 09:53:40;;;;;;;5.30;2.72;;;;;;;8.64;58.19;101898.00;5088243;28;20024;-80
2023/04/26 09:56:07;;;;;;;2.80;2.10;;;;;;;8.71;59.38;101892.91;5094846;28;20480;-80
2023/04/26 09:58:33;;;;;;;3.90;2.30;;;;;;;8.74;61.26;101895.50;5092560;28;20072;-81
2023/04/26 10:00:58;;;;;;;2.23;1.80;;;;;;;8.79;62.11;101894.69;5094162;28;20055;-82
2023/04/26 10:03:25;;;;;;;1.77;1.63;;;;;;;8.85;62.49;101898.19;5094283;28;20032;-81
2023/04/26 10:05:51;;;;;;;1.80;1.70;;;;;;;8.84;62.88;101892.13;5094889;28;20051;-81
2023/04/26 10:08:19;;;;;;;1.50;1.40;;;;;;;8.90;63.37;101891.31;5093912;28;20460;-81
2023/04/26 10:10:45;;;;;;;1.90;1.50;;;;;;;8.87;61.46;101894.75;5094864;28;20012;-83
2023/04/26 10:13:11;;;;;;;1.30;1.20;;;;;;;8.81;62.85;101890.38;5094559;28;20023;-83
2023/04/26 10:15:39;;;;;;;2.17;1.70;;;;;;;8.75;60.20;101898.13;5093349;28;20399;-81
2023/04/26 10:18:04;;;;;;;2.17;1.60;;;;;;;8.72;63.27;101898.06;5094433;28;20102;-81
2023/04/26 10:20:30;;;;;;;1.43;1.33;;;;;;;8.73;64.40;101899.81;5092549;28;20028;-81
2023/04/26 10:23:00;;;;;;;1.80;1.50;;;;;;;8.74;62.98;101901.56;5093829;28;20024;-81
2023/04/26 10:25:36;;;;;;;2.08;1.40;;;;;;;8.67;61.76;101889.38;5093881;28;20020;-81
2023/04/26 10:28:04;;;;;;;3.20;1.95;;;;;;;8.69;59.26;101897.19;5093613;28;20128;-81
2023/04/26 10:30:31;;;;;;;1.67;1.58;;;;;;;8.68;62.85;101901.47;5093757;28;20105;-81
2023/04/26 10:32:56;;;;;;;1.48;1.30;;;;;;;8.74;63.21;101892.91;5087133;28;20111;-82
2023/04/26 10:35:25;;;;;;;1.47;1.30;;;;;;;8.80;63.15;101886.06;5072958;28;20032;-81
2023/04/26 10:38:07;;;;;;;6.93;2.80;;;;;;;8.65;57.75;101883.34;5073949;28;20032;-81
2023/04/26 10:40:41;;;;;;;4.90;2.40;;;;;;;8.65;60.58;101885.94;5073359;28;20017;-81
2023/04/26 10:43:10;;;;;;;4.22;2.30;;;;;;;8.75;56.85;101889.47;5072199;28;20031;-81
2023/04/26 10:45:37;;;;;;;4.90;2.10;;;;;;;8.81;59.81;101882.63;5073481;28;20040;-81
2023/04/26 10:48:19;;;;;;;2.15;1.90;;;;;;;8.97;61.33;101885.34;5080612;28;20536;-81
2023/04/26 10:51:10;;;;;;;1.90;1.73;;;;;;;9.15;61.61;101878.56;5092998;28;20020;-81
2023/04/26 10:53:50;;;;;;;1.50;1.40;;;;;;;9.35;61.44;101881.31;5093143;28;20033;-81
2023/04/26 10:56:24;;;;;;;1.67;1.50;;;;;;;9.56;61.60;101878.00;5093014;28;20035;-81
2023/04/26 10:59:12;;;;;;;1.50;1.40;;;;;;;9.78;60.84;101883.28;5092993;28;20056;-81
2023/04/26 11:01:38;;;;;;;2.00;1.38;;;;;;;9.90;59.40;101870.38;5092577;28;20031;-81
2023/04/26 11:04:07;;;;;;;2.30;2.10;;;;;;;10.03;57.19;101876.47;5092860;28;20039;-81
2023/04/26 11:06:51;;;;;;;2.90;2.15;;;;;;;10.15;58.77;101873.03;5093432;28;20040;-81
2023/04/26 11:09:36;;;;;;;2.85;2.20;;;;;;;10.32;58.58;101873.06;5093319;28;20380;-81
2023/04/26 11:12:12;;;;;;;3.58;2.50;;;;;;;10.43;54.68;101870.56;5092319;28;20468;-81
2023/04/26 11:14:40;;;;;;;5.00;2.88;;;;;;;10.26;50.14;101875.66;5093175;28;20035;-81
2023/04/26 11:17:07;;;;;;;6.28;2.80;;;;;;;10.12;55.28;101860.06;5090717;28;20038;-81
2023/04/26 11:19:33;;;;;;;3.85;2.40;;;;;;;10.23;56.98;101862.69;5092452;28;20067;-81
2023/04/26 11:21:59;;;;;;;4.00;2.30;;;;;;;10.33;51.28;101857.53;5093624;28;20021;-83
2023/04/26 11:24:35;;;;;;;4.90;2.40;;;;;;;10.44;57.16;101862.75;5092458;28;20024;-86
2023/04/26 11:27:06;;;;;;;2.15;1.95;;;;;;;10.57;57.37;101853.28;5093794;28;20028;-84
2023/04/26 11:29:32;;;;;;;1.92;1.67;;;;;;;10.74;57.37;101863.66;5084951;28;20093;-85
2023/04/26 11:31:58;;;;;;;1.70;1.60;;;;;;;10.83;57.25;101855.00;5072611;28;20108;-85
2023/04/26 11:34:34;;;;;;;1.80;1.70;;;;;;;10.88;57.83;101847.19;5073036;28;20025;-82
2023/04/26 11:37:04;;;;;;;1.80;1.70;;;;;;;11.02;58.17;101840.28;5072775;28;20032;-82